Kallithea, Greece

2:49 AM EEST on June 04, 2015 (GMT +0300)
Magla Weather Station | | Change Station
CLOSE
Current Station
Personal Weather Station
Location: Moschato, ATTICA
Elevation: 30 ft
Nearby Weather Stations

Elev 30 ft 37.94 °N, 23.68 °E | Updated 4 minutes ago

Scattered Clouds
Scattered Clouds
73.4 °F
Feels Like 76 °F
N
1.0
Wind Variable Wind from NE
Gusts 5.0 mph

Today
High -- | Low -- °F
--% Chance of Precip.
Yesterday
High -- | Low -- °F
Precip. -- in
6:03 AM 8:43 PM
Full, 98% visible
Pressure 30.04 in
Visibility 6.2 miles
Clouds Scattered Clouds 2500 ft
Heat Index 76 °F
Dew Point 61 °F
Humidity 65%
Rainfall 0.00 in
Snow Depth Not available.
UV 0 out of 12
Pollen Not available.
Air Quality Not available.
Flu Activity Not available.
METAR LGAV 032320Z 33006KT 9999 SCT025 20/10 Q1017 NOSIG

More Conditions Fewer Conditions

Pressure 30.04 in
Visibility 6.2 miles
Clouds Scattered Clouds 2500 ft
Heat Index 76 °F
Dew Point 61 °F
Humidity 65%
Rainfall 0.00 in
Snow Depth Not available.
UV 0 out of 12
Pollen Not available.
Air Quality Not available.
Flu Activity Not available.
METAR LGAV 032320Z 33006KT 9999 SCT025 20/10 Q1017 NOSIG

More Conditions Fewer Conditions

10-Day Weather Forecast

×

Almanac

Astronomy

Jun. 04, 2015 Rise Set
Actual Time
Civil Twilight
Nautical Twilight
Astronomical Twilight
Moon
Length of Visible Light
Length of Day
Tomorrow will be .
, % of the Moon is Illuminated

Today's Extremes

Country Highs Country Lows

Community

WunderPhotos

Upload Photos

1,826,304 photos uploaded!

WunderBlogs® & News

Nearby

Air Quality

  Air Quality AQ Index Pollutant
Not available.

Snow Depth

Station Depth Elevation

Earthquake Activity

City Distance Mag. Time & Date
Minimum magnitude displayed is 2.5.

Coastal Water Temperatures

Place Temperature

Stations

Nearby Weather Stations

Station Location Temp. Windchill Dew Point Humidity Wind Precip. Elev Updated Type